Time;durP1;ratioP1;P1;durP2;ratioP2;P2;SDS_P1;SDS_P2;PMS_P1;PMS_P2;Temp;Humidity;BMP_temperature;BMP_pressure;BME280_temperature;BME280_humidity;BME280_pressure;Samples;Min_cycle;Max_cycle;Signal;HPM_P1;HPM_P2
2022/05/04 00:00:08;;;;;;;6.28;5.97;;;;;;;11.89;73.28;100531.41;5051139;28;20036;-62
2022/05/04 00:02:33;;;;;;;6.05;5.85;;;;;;;12.00;73.27;100539.94;5031858;28;20084;-62
2022/05/04 00:04:59;;;;;;;5.82;5.63;;;;;;;11.95;74.08;100539.66;5049122;28;20033;-62
2022/05/04 00:07:24;;;;;;;6.07;5.88;;;;;;;11.87;73.42;100540.56;5051382;28;20023;-62
2022/05/04 00:09:50;;;;;;;5.70;5.50;;;;;;;11.88;74.24;100540.38;5051627;28;20024;-61
2022/05/04 00:12:15;;;;;;;6.50;6.20;;;;;;;11.85;73.73;100534.63;5051545;28;20028;-62
2022/05/04 00:14:41;;;;;;;6.40;6.10;;;;;;;11.94;73.35;100533.53;5050992;28;20029;-62
2022/05/04 00:17:06;;;;;;;6.07;5.88;;;;;;;12.02;72.33;100537.91;5049168;28;20602;-62
2022/05/04 00:19:32;;;;;;;5.85;5.65;;;;;;;12.02;72.68;100541.41;5051423;28;20032;-62
2022/05/04 00:21:57;;;;;;;6.00;5.80;;;;;;;12.02;73.53;100541.41;5044266;28;20025;-62
2022/05/04 00:24:22;;;;;;;6.50;6.20;;;;;;;11.97;73.75;100542.94;5051920;28;20033;-62
2022/05/04 00:26:48;;;;;;;6.03;5.80;;;;;;;11.92;73.90;100543.50;5051377;28;20538;-63
2022/05/04 00:29:14;;;;;;;5.88;5.68;;;;;;;11.92;74.18;100535.53;5051323;28;20381;-63
2022/05/04 00:31:39;;;;;;;6.30;6.00;;;;;;;11.96;72.57;100534.16;5051006;28;20064;-62
2022/05/04 00:34:05;;;;;;;6.03;5.82;;;;;;;11.89;73.26;100533.22;5055610;28;20075;-61
2022/05/04 00:36:31;;;;;;;5.90;5.70;;;;;;;11.75;74.89;100548.16;5051607;28;20574;-62
2022/05/04 00:38:57;;;;;;;5.97;5.78;;;;;;;11.76;74.75;100549.81;5051161;28;20022;-62
2022/05/04 00:41:23;;;;;;;5.78;5.57;;;;;;;11.85;74.60;100551.41;5055333;28;20428;-62
2022/05/04 00:43:53;;;;;;;5.93;5.72;;;;;;;11.83;75.18;100556.06;5051433;28;20025;-62
2022/05/04 00:46:19;;;;;;;5.90;5.70;;;;;;;11.82;76.74;100551.75;5050105;28;20476;-63
2022/05/04 00:48:44;;;;;;;6.47;6.18;;;;;;;11.80;77.49;100553.75;5049756;28;20075;-62
2022/05/04 00:51:10;;;;;;;6.35;6.05;;;;;;;11.62;79.99;100553.25;5035729;28;20021;-62
2022/05/04 00:53:37;;;;;;;6.40;6.10;;;;;;;11.50;80.06;100557.34;5039208;28;20032;-62
2022/05/04 00:56:04;;;;;;;5.90;5.70;;;;;;;11.50;78.89;100562.66;5051184;28;20104;-63
2022/05/04 01:01:16;;;;;;;5.75;5.55;;;;;;;11.40;80.49;100568.25;5051041;28;20055;-62
2022/05/04 01:03:42;;;;;;;6.15;5.88;;;;;;;11.04;80.14;100568.00;5046232;28;20378;-63
2022/05/04 01:06:07;;;;;;;5.88;5.68;;;;;;;11.18;77.88;100569.09;5050553;28;20131;-62
2022/05/04 01:08:33;;;;;;;5.90;5.70;;;;;;;11.29;79.45;100572.13;5054608;28;20024;-62
2022/05/04 01:10:58;;;;;;;5.80;5.60;;;;;;;11.40;79.84;100570.06;5054880;28;20024;-62
2022/05/04 01:13:24;;;;;;;6.30;6.00;;;;;;;11.51;79.15;100559.81;5054668;28;20035;-63
2022/05/04 01:15:49;;;;;;;5.90;5.70;;;;;;;11.49;80.12;100569.00;5065776;28;20025;-62
2022/05/04 01:18:15;;;;;;;5.93;5.72;;;;;;;11.54;78.99;100556.81;5054628;28;20049;-62
2022/05/04 01:20:41;;;;;;;5.88;5.68;;;;;;;11.55;79.17;100560.31;5053703;28;20491;-62
2022/05/04 01:23:07;;;;;;;5.90;5.70;;;;;;;11.59;78.37;100556.25;5042398;28;20029;-63
2022/05/04 01:25:32;;;;;;;6.07;5.88;;;;;;;11.62;77.97;100559.41;5054389;28;20048;-64
2022/05/04 01:27:57;;;;;;;6.00;5.80;;;;;;;11.60;76.69;100566.72;5053603;28;20025;-62
2022/05/04 01:30:23;;;;;;;5.70;5.50;;;;;;;11.61;76.59;100559.59;5054190;28;20032;-64
2022/05/04 01:32:49;;;;;;;6.00;5.80;;;;;;;11.65;76.03;100554.72;5054688;28;20426;-62
2022/05/04 01:35:14;;;;;;;6.45;6.15;;;;;;;11.65;76.56;100555.53;5045823;28;20032;-62
2022/05/04 01:37:41;;;;;;;6.05;5.85;;;;;;;11.66;77.24;100554.53;5047208;28;20460;-62
2022/05/04 01:40:07;;;;;;;5.88;5.68;;;;;;;11.69;78.02;100553.38;5049502;28;20091;-62
2022/05/04 01:42:32;;;;;;;6.28;5.97;;;;;;;11.75;77.54;100563.25;5052939;28;20056;-62
2022/05/04 01:44:58;;;;;;;5.97;5.78;;;;;;;11.77;76.61;100559.41;5054256;28;20556;-63
2022/05/04 01:47:24;;;;;;;6.40;6.10;;;;;;;11.72;77.57;100553.81;5054245;28;20029;-62
2022/05/04 01:49:49;;;;;;;6.13;5.90;;;;;;;11.71;77.36;100560.13;5053383;28;20021;-61
2022/05/04 01:52:15;;;;;;;6.00;5.80;;;;;;;11.74;77.35;100549.13;5054241;28;20025;-63
2022/05/04 01:54:40;;;;;;;5.82;5.63;;;;;;;11.47;80.93;100552.41;5048350;28;20040;-61
2022/05/04 01:57:06;;;;;;;5.90;5.70;;;;;;;11.34;83.81;100564.47;5041244;28;20057;-61
2022/05/04 01:59:31;;;;;;;5.85;5.65;;;;;;;11.41;83.03;100569.88;5041967;28;20076;-63
2022/05/04 02:01:57;;;;;;;6.00;5.80;;;;;;;11.42;82.55;100570.72;5050443;28;20029;-62
2022/05/04 02:04:22;;;;;;;6.13;5.85;;;;;;;11.04;85.70;100575.97;5053799;28;20028;-62
2022/05/04 02:06:48;;;;;;;6.20;5.90;;;;;;;11.12;82.60;100577.75;5054846;28;20025;-62
2022/05/04 02:09:14;;;;;;;6.20;5.90;;;;;;;11.05;83.49;100574.97;5044387;28;20025;-63
2022/05/04 02:11:40;;;;;;;5.93;5.72;;;;;;;11.06;84.81;100573.97;5052169;28;20025;-63
2022/05/04 02:14:06;;;;;;;6.10;5.88;;;;;;;11.08;85.48;100586.03;5052417;28;20028;-63
2022/05/04 02:16:31;;;;;;;6.22;5.93;;;;;;;10.97;86.44;100588.28;5052917;28;20020;-61
2022/05/04 02:18:57;;;;;;;6.03;5.82;;;;;;;11.06;86.34;100588.06;5053499;28;20116;-62
2022/05/04 02:21:23;;;;;;;5.82;5.63;;;;;;;11.05;87.51;100582.94;5053314;28;20028;-61
2022/05/04 02:23:49;;;;;;;5.95;5.75;;;;;;;10.99;87.64;100589.75;5061528;28;20037;-63
2022/05/04 02:26:14;;;;;;;6.30;6.00;;;;;;;10.95;89.97;100593.78;5052785;28;20044;-63
2022/05/04 02:28:40;;;;;;;5.90;5.70;;;;;;;11.02;89.80;100604.53;5050533;28;20487;-63
2022/05/04 02:31:05;;;;;;;6.00;5.80;;;;;;;10.87;91.30;100614.22;5047383;28;20033;-61
2022/05/04 02:33:31;;;;;;;6.07;5.85;;;;;;;10.64;93.77;100609.69;5053190;28;20036;-62
2022/05/04 02:38:41;;;;;;;6.15;5.90;;;;;;;10.72;92.78;100607.03;5053133;28;20058;-63
2022/05/04 02:41:06;;;;;;;6.13;5.88;;;;;;;10.97;90.99;100604.22;5053514;28;20025;-62
2022/05/04 02:43:32;;;;;;;6.00;5.80;;;;;;;10.72;91.67;100604.38;5052800;28;20400;-63
2022/05/04 02:46:11;;;;;;;6.30;6.00;;;;;;;10.46;93.10;100614.44;5041231;28;20033;-63
2022/05/04 02:48:36;;;;;;;6.00;5.80;;;;;;;10.22;95.55;100618.81;5052033;28;20029;-63
2022/05/04 02:51:02;;;;;;;6.32;6.03;;;;;;;10.53;93.71;100607.44;5052801;28;20111;-62
2022/05/04 02:53:27;;;;;;;6.68;6.38;;;;;;;10.62;94.21;100616.19;5052588;28;20491;-61
2022/05/04 02:55:52;;;;;;;6.13;5.90;;;;;;;10.73;94.22;100615.81;5052718;28;20032;-61
2022/05/04 02:58:18;;;;;;;6.30;6.00;;;;;;;10.75;93.75;100609.31;5050278;28;20045;-62
2022/05/04 03:00:43;;;;;;;6.30;6.00;;;;;;;10.75;93.56;100604.00;5045257;28;20091;-61
2022/05/04 03:03:10;;;;;;;6.30;6.00;;;;;;;10.85;91.85;100611.75;5039422;28;20037;-63
2022/05/04 03:05:36;;;;;;;5.97;5.78;;;;;;;10.86;90.70;100621.34;5044297;28;20056;-62
2022/05/04 03:08:02;;;;;;;6.35;6.05;;;;;;;10.83;92.23;100612.94;5039686;28;20477;-62
2022/05/04 03:10:27;;;;;;;5.90;5.70;;;;;;;10.83;90.51;100620.91;5052198;28;20017;-63
2022/05/04 03:12:53;;;;;;;6.40;6.10;;;;;;;10.68;92.70;100615.50;5048356;28;20025;-63
2022/05/04 03:15:18;;;;;;;6.40;6.10;;;;;;;10.86;91.53;100628.50;5052570;28;20124;-62
2022/05/04 03:17:43;;;;;;;5.85;5.65;;;;;;;10.98;90.20;100622.63;5052164;28;20032;-62
2022/05/04 03:20:11;;;;;;;6.40;6.10;;;;;;;10.80;91.39;100622.06;5041530;28;20025;-63
2022/05/04 03:22:38;;;;;;;6.22;5.93;;;;;;;10.99;90.49;100618.97;5043196;28;20033;-63
2022/05/04 03:25:08;;;;;;;5.95;5.75;;;;;;;10.99;89.10;100618.13;5046700;28;20032;-62
2022/05/04 03:27:33;;;;;;;5.70;5.50;;;;;;;11.28;86.54;100623.59;5041382;28;20033;-63
2022/05/04 03:29:59;;;;;;;6.43;6.13;;;;;;;10.97;89.27;100623.63;5044579;28;20025;-63
2022/05/04 03:32:24;;;;;;;6.57;6.28;;;;;;;10.70;90.68;100629.41;5054994;28;20074;-62
2022/05/04 03:34:50;;;;;;;6.05;5.85;;;;;;;11.38;87.64;100626.00;5050562;28;20393;-62
2022/05/04 03:37:15;;;;;;;6.03;5.82;;;;;;;11.71;85.96;100625.75;5048778;28;20087;-63
2022/05/04 03:39:41;;;;;;;6.10;5.90;;;;;;;11.99;83.98;100634.84;5048713;28;20116;-64
2022/05/04 03:42:07;;;;;;;6.30;6.00;;;;;;;12.14;83.16;100624.22;5046532;28;20030;-63
2022/05/04 03:44:32;;;;;;;5.90;5.70;;;;;;;12.17;83.24;100624.66;5055335;28;20037;-62
2022/05/04 03:46:58;;;;;;;6.38;6.07;;;;;;;12.26;82.21;100636.03;5037470;28;20028;-63
2022/05/04 03:49:23;;;;;;;6.00;5.80;;;;;;;12.32;81.51;100637.97;5043699;28;20132;-63
2022/05/04 03:51:50;;;;;;;5.88;5.68;;;;;;;12.44;81.50;100644.47;5048001;28;20039;-65
2022/05/04 03:54:16;;;;;;;6.57;6.28;;;;;;;12.67;80.46;100651.53;5050401;28;20029;-62
2022/05/04 03:56:41;;;;;;;6.47;6.18;;;;;;;12.70;79.42;100653.81;5041981;28;20494;-63
2022/05/04 03:59:07;;;;;;;6.30;6.00;;;;;;;12.88;78.17;100654.25;5050998;28;20049;-62
2022/05/04 04:01:34;;;;;;;6.13;5.90;;;;;;;12.86;78.54;100656.28;5049762;28;20049;-63
2022/05/04 04:04:00;;;;;;;6.32;6.03;;;;;;;12.93;77.75;100649.22;5053114;28;20103;-62
2022/05/04 04:06:26;;;;;;;6.60;6.30;;;;;;;13.00;78.79;100658.09;5057891;28;20029;-62
2022/05/04 04:08:52;;;;;;;6.60;6.30;;;;;;;13.12;77.72;100661.09;5051052;28;20487;-63
2022/05/04 04:11:18;;;;;;;6.68;6.38;;;;;;;13.56;76.13;100660.13;5046114;28;20025;-62
2022/05/04 04:13:44;;;;;;;6.70;6.40;;;;;;;15.98;66.79;100665.19;5045712;28;20033;-62
2022/05/04 04:16:10;;;;;;;6.10;5.90;;;;;;;18.41;56.15;100671.34;5050107;28;20032;-63
2022/05/04 04:18:35;;;;;;;6.50;6.20;;;;;;;19.72;51.86;100671.78;5050878;28;20052;-64
2022/05/04 04:23:45;;;;;;;6.40;6.10;;;;;;;20.89;47.08;100677.97;5048638;28;20075;-63
2022/05/04 04:26:11;;;;;;;6.43;6.13;;;;;;;18.96;51.43;100671.38;5043166;28;20029;-62
2022/05/04 04:28:38;;;;;;;6.50;6.20;;;;;;;20.03;48.81;100667.94;5050927;28;20431;-63
2022/05/04 04:31:05;;;;;;;6.40;6.10;;;;;;;19.53;50.32;100669.13;5050390;28;20467;-64
2022/05/04 04:33:30;;;;;;;6.60;6.30;;;;;;;17.91;55.29;100666.03;5056340;28;20057;-64
2022/05/04 04:35:57;;;;;;;6.90;6.60;;;;;;;17.78;55.88;100676.06;5038625;28;20147;-63
2022/05/04 04:38:23;;;;;;;6.85;6.55;;;;;;;18.96;53.05;100674.06;5055345;28;20082;-64
2022/05/04 04:40:50;;;;;;;6.68;6.38;;;;;;;20.74;47.35;100679.53;5040214;28;20033;-64
2022/05/04 04:43:16;;;;;;;6.80;6.50;;;;;;;22.08;44.45;100682.56;5054572;28;20032;-63
2022/05/04 04:45:43;;;;;;;6.72;6.43;;;;;;;22.60;42.73;100693.03;5054935;28;20036;-63
2022/05/04 04:48:09;;;;;;;6.53;6.22;;;;;;;22.97;40.84;100695.13;5055624;28;20025;-64
2022/05/04 04:50:35;;;;;;;6.65;6.35;;;;;;;23.22;39.94;100690.03;5061609;28;20036;-62
2022/05/04 04:53:00;;;;;;;7.00;6.70;;;;;;;23.58;39.56;100674.16;5043245;28;20028;-63
2022/05/04 04:55:26;;;;;;;7.20;6.90;;;;;;;23.18;40.06;100686.19;5040921;28;20047;-63
2022/05/04 04:57:51;;;;;;;7.15;6.85;;;;;;;23.28;39.78;100678.19;5054109;28;20045;-62
2022/05/04 05:00:17;;;;;;;7.65;7.35;;;;;;;21.59;42.66;100659.84;5050282;28;20040;-64
2022/05/04 05:02:44;;;;;;;6.85;6.55;;;;;;;19.49;47.63;100665.25;5043172;28;20033;-63
2022/05/04 05:05:09;;;;;;;6.80;6.50;;;;;;;18.61;49.97;100659.56;5051212;28;20029;-63
2022/05/04 05:07:36;;;;;;;6.90;6.60;;;;;;;18.59;50.92;100672.44;5054170;28;20021;-63
2022/05/04 05:10:02;;;;;;;6.88;6.57;;;;;;;18.70;50.05;100674.38;5054858;28;20066;-62
2022/05/04 05:12:27;;;;;;;7.00;6.70;;;;;;;18.84;49.27;100686.63;5054516;28;20021;-62
2022/05/04 05:17:37;;;;;;;7.10;6.80;;;;;;;23.38;39.24;100701.84;5044340;28;20024;-63
2022/05/04 05:20:04;;;;;;;6.93;6.63;;;;;;;24.65;36.97;100705.56;5046982;28;20041;-63
2022/05/04 05:22:30;;;;;;;7.10;6.80;;;;;;;24.78;35.91;100701.56;5053375;28;20033;-62
2022/05/04 05:24:55;;;;;;;6.60;6.30;;;;;;;22.51;40.33;100708.06;5054102;28;20036;-63
2022/05/04 05:27:22;;;;;;;6.70;6.40;;;;;;;21.11;42.90;100712.38;5034962;28;20042;-63
2022/05/04 05:29:48;;;;;;;6.60;6.30;;;;;;;21.78;41.68;100710.69;5047382;28;20596;-62
2022/05/04 05:32:14;;;;;;;6.60;6.30;;;;;;;20.71;43.38;100718.56;5055314;28;20056;-62
2022/05/04 05:34:39;;;;;;;6.90;6.60;;;;;;;20.55;43.70;100725.47;5048778;28;20473;-63
2022/05/04 05:37:05;;;;;;;6.78;6.47;;;;;;;20.54;43.71;100725.72;5037847;28;20095;-64
2022/05/04 05:39:30;;;;;;;6.80;6.50;;;;;;;22.39;40.00;100723.53;5053056;28;20056;-63
2022/05/04 05:41:56;;;;;;;6.88;6.57;;;;;;;24.73;35.21;100732.19;5057907;28;20036;-63
2022/05/04 05:44:21;;;;;;;6.95;6.65;;;;;;;25.94;32.93;100735.59;5048040;28;20033;-63
2022/05/04 05:46:47;;;;;;;6.90;6.60;;;;;;;26.08;32.85;100746.72;5047226;28;20035;-63
2022/05/04 05:49:12;;;;;;;6.80;6.50;;;;;;;27.43;30.58;100755.91;5051322;28;20023;-63
2022/05/04 05:51:38;;;;;;;7.00;6.70;;;;;;;27.75;29.48;100752.72;5052847;28;20030;-63
2022/05/04 05:54:03;;;;;;;7.00;6.70;;;;;;;28.76;28.59;100755.63;5059924;28;20045;-63
2022/05/04 05:56:29;;;;;;;7.00;6.70;;;;;;;28.40;29.00;100752.47;5049882;28;20139;-65
2022/05/04 05:58:54;;;;;;;6.80;6.50;;;;;;;27.07;30.16;100753.34;5047960;28;20567;-63
2022/05/04 06:01:19;;;;;;;6.90;6.60;;;;;;;25.65;32.49;100757.00;5046583;28;20055;-64
2022/05/04 06:03:45;;;;;;;6.72;6.43;;;;;;;26.27;31.53;100766.81;5053064;28;20032;-62
2022/05/04 06:06:10;;;;;;;6.78;6.47;;;;;;;25.80;32.19;100758.94;5055431;28;20044;-62
2022/05/04 06:08:36;;;;;;;6.78;6.47;;;;;;;25.18;33.35;100768.78;5054240;28;20051;-63
2022/05/04 06:11:01;;;;;;;6.85;6.55;;;;;;;24.99;34.71;100764.91;5053994;28;20028;-63
2022/05/04 06:13:27;;;;;;;6.88;6.57;;;;;;;23.53;36.43;100760.75;5066385;28;20025;-63
2022/05/04 06:15:53;;;;;;;7.20;6.90;;;;;;;22.53;38.50;100760.78;5049358;28;20021;-63
2022/05/04 06:18:18;;;;;;;6.90;6.60;;;;;;;22.75;38.69;100763.53;5057020;28;20027;-62
2022/05/04 06:20:44;;;;;;;7.40;7.10;;;;;;;22.56;38.69;100759.50;5043498;28;20507;-62
2022/05/04 06:23:09;;;;;;;6.90;6.60;;;;;;;24.52;35.83;100758.38;5055513;28;20036;-63
2022/05/04 06:25:36;;;;;;;7.40;7.10;;;;;;;27.56;30.76;100768.09;5055502;28;20104;-64
2022/05/04 06:28:03;;;;;;;6.90;6.60;;;;;;;27.93;30.08;100752.03;5046909;28;20511;-62
2022/05/04 06:35:56;;;;;;;6.60;6.30;;;;;;;24.29;35.50;100763.34;5047907;28;20513;-62
2022/05/04 06:38:21;;;;;;;6.95;6.65;;;;;;;25.14;34.38;100770.41;5061937;28;20053;-61
2022/05/04 06:40:47;;;;;;;6.68;6.38;;;;;;;24.70;35.67;100778.03;5050445;28;20046;-62
2022/05/04 06:43:12;;;;;;;6.72;6.43;;;;;;;23.82;36.37;100778.41;5052182;28;20025;-62
2022/05/04 06:45:38;;;;;;;6.63;6.32;;;;;;;24.55;35.34;100770.63;5055467;28;20393;-63
2022/05/04 06:48:04;;;;;;;6.82;6.53;;;;;;;23.13;37.54;100767.31;5059424;28;20475;-62
2022/05/04 06:50:30;;;;;;;6.97;6.68;;;;;;;26.26;33.39;100781.50;5054953;28;20013;-63
2022/05/04 06:52:56;;;;;;;6.85;6.55;;;;;;;27.54;31.04;100785.53;5052417;28;20032;-63
2022/05/04 06:55:21;;;;;;;7.03;6.72;;;;;;;28.01;30.50;100786.06;5060692;28;20155;-62
2022/05/04 06:57:47;;;;;;;6.70;6.40;;;;;;;25.60;34.18;100795.81;5053359;28;20049;-63
2022/05/04 07:00:13;;;;;;;6.75;6.45;;;;;;;24.86;34.81;100787.91;5055972;28;20047;-63
2022/05/04 07:02:38;;;;;;;6.80;6.50;;;;;;;24.46;35.47;100786.56;5049255;28;20051;-61
2022/05/04 07:05:05;;;;;;;6.60;6.30;;;;;;;24.18;36.11;100776.03;5052675;28;20037;-62
2022/05/04 07:07:31;;;;;;;6.80;6.50;;;;;;;23.60;36.88;100774.91;5051342;28;20393;-63
2022/05/04 07:09:58;;;;;;;6.90;6.60;;;;;;;22.38;40.02;100779.50;5051904;28;20021;-62
2022/05/04 07:12:23;;;;;;;6.80;6.50;;;;;;;21.52;41.76;100776.91;5054142;28;20510;-63
2022/05/04 07:14:49;;;;;;;6.90;6.60;;;;;;;21.20;42.82;100781.91;5060932;28;20033;-63
2022/05/04 07:17:14;;;;;;;6.80;6.50;;;;;;;20.84;44.00;100779.50;5056732;28;20480;-63
2022/05/04 07:19:40;;;;;;;7.00;6.70;;;;;;;21.01;44.19;100782.31;5055910;28;20029;-61
2022/05/04 07:22:05;;;;;;;6.90;6.60;;;;;;;20.59;45.57;100791.34;5054452;28;20052;-63
2022/05/04 07:24:31;;;;;;;7.00;6.70;;;;;;;20.17;46.87;100793.25;5059091;28;20491;-62
2022/05/04 07:26:56;;;;;;;6.90;6.60;;;;;;;20.01;46.43;100792.06;5055416;28;20060;-61
2022/05/04 07:29:22;;;;;;;6.88;6.57;;;;;;;20.03;47.04;100794.53;5055329;28;20020;-62
2022/05/04 07:31:47;;;;;;;6.75;6.45;;;;;;;20.41;46.53;100818.38;5064372;28;20040;-61
2022/05/04 07:34:19;;;;;;;6.90;6.60;;;;;;;19.87;46.88;100804.06;5060489;28;20020;-62
2022/05/04 07:36:45;;;;;;;7.07;6.78;;;;;;;19.47;48.20;100809.16;5046612;28;20056;-62
2022/05/04 07:44:40;;;;;;;6.72;6.43;;;;;;;19.24;49.82;100807.97;5044784;28;20048;-62
2022/05/04 07:47:06;;;;;;;6.65;6.35;;;;;;;19.81;47.79;100815.75;5052470;28;20025;-62
2022/05/04 07:49:32;;;;;;;6.82;6.53;;;;;;;20.39;46.01;100815.91;5048743;28;20034;-62
2022/05/04 07:51:57;;;;;;;6.70;6.40;;;;;;;20.58;45.19;100826.63;5050243;28;20025;-63
2022/05/04 07:54:23;;;;;;;6.80;6.50;;;;;;;20.47;44.94;100822.84;5048644;28;20056;-62
2022/05/04 07:56:49;;;;;;;7.00;6.70;;;;;;;20.62;43.79;100823.22;5056124;28;20032;-62
2022/05/04 07:59:14;;;;;;;6.78;6.47;;;;;;;20.77;43.21;100824.63;5053255;28;20069;-61
2022/05/04 08:04:24;;;;;;;6.68;6.38;;;;;;;21.22;42.87;100828.34;5049874;28;20102;-62
2022/05/04 08:06:49;;;;;;;6.50;6.20;;;;;;;21.66;42.43;100830.59;5051630;28;20375;-62
2022/05/04 08:09:16;;;;;;;7.13;6.82;;;;;;;22.22;41.03;100821.66;5048352;28;20051;-63
2022/05/04 08:11:43;;;;;;;6.88;6.57;;;;;;;22.94;40.18;100831.75;5053133;28;20445;-63
2022/05/04 08:14:09;;;;;;;6.90;6.60;;;;;;;22.97;39.26;100831.25;5056116;28;20078;-62
2022/05/04 08:16:35;;;;;;;6.90;6.60;;;;;;;23.85;37.08;100834.78;5056277;28;20033;-63
2022/05/04 08:19:01;;;;;;;7.05;6.75;;;;;;;25.27;35.63;100837.00;5060644;28;20036;-63
2022/05/04 08:21:27;;;;;;;6.90;6.60;;;;;;;24.21;36.61;100830.53;5055555;28;20029;-63
2022/05/04 08:23:52;;;;;;;7.00;6.70;;;;;;;23.48;37.28;100831.09;5060744;28;20026;-62
2022/05/04 08:26:17;;;;;;;7.00;6.70;;;;;;;23.46;36.83;100835.94;5053999;28;20078;-63
2022/05/04 08:28:43;;;;;;;6.80;6.50;;;;;;;23.66;36.20;100838.94;5053567;28;20104;-63
2022/05/04 08:31:09;;;;;;;6.60;6.30;;;;;;;23.60;36.91;100829.06;5051453;28;20035;-63
2022/05/04 08:33:35;;;;;;;6.80;6.50;;;;;;;23.80;37.30;100821.19;5055489;28;20031;-68
2022/05/04 08:36:01;;;;;;;6.90;6.60;;;;;;;23.39;37.91;100825.31;5055442;28;20048;-62
2022/05/04 08:38:27;;;;;;;6.85;6.55;;;;;;;23.77;37.36;100815.47;5053650;28;20487;-63
2022/05/04 08:40:55;;;;;;;6.70;6.40;;;;;;;23.55;37.40;100821.69;5057625;28;20029;-63
2022/05/04 08:43:24;;;;;;;7.00;6.70;;;;;;;24.66;35.52;100815.72;5060164;28;20071;-62
2022/05/04 08:45:53;;;;;;;6.90;6.60;;;;;;;24.47;35.39;100815.31;5049963;28;20028;-63
2022/05/04 08:48:21;;;;;;;6.80;6.50;;;;;;;24.10;36.01;100814.44;5059230;28;20021;-62
2022/05/04 08:50:47;;;;;;;6.88;6.57;;;;;;;25.98;33.44;100825.53;5049341;28;20041;-62
2022/05/04 08:53:13;;;;;;;6.80;6.50;;;;;;;24.71;34.07;100814.94;5053543;28;20035;-63
2022/05/04 08:55:39;;;;;;;6.60;6.30;;;;;;;24.01;35.66;100816.78;5052772;28;20025;-63
2022/05/04 08:58:06;;;;;;;7.00;6.70;;;;;;;24.13;34.98;100827.47;5054921;28;20045;-63
2022/05/04 09:00:32;;;;;;;6.53;6.22;;;;;;;24.05;33.33;100820.63;5060885;28;20072;-63
2022/05/04 09:02:57;;;;;;;6.70;6.40;;;;;;;24.11;33.24;100819.59;5056942;28;20108;-63
2022/05/04 09:05:29;;;;;;;6.70;6.40;;;;;;;24.75;32.23;100826.88;5045854;28;20151;-63
2022/05/04 09:07:58;;;;;;;6.75;6.45;;;;;;;24.14;33.26;100826.38;5053047;28;20033;-63
2022/05/04 09:10:27;;;;;;;6.80;6.50;;;;;;;23.99;33.41;100835.19;5053608;28;20029;-63
2022/05/04 09:12:54;;;;;;;6.90;6.60;;;;;;;23.57;32.99;100824.97;5052793;28;20029;-65
2022/05/04 09:15:28;;;;;;;6.82;6.53;;;;;;;23.13;33.89;100822.25;5052770;28;20108;-63
2022/05/04 09:17:59;;;;;;;6.80;6.50;;;;;;;23.10;34.21;100816.53;5055395;28;20028;-64
2022/05/04 09:20:51;;;;;;;7.65;7.35;;;;;;;23.94;33.29;100813.47;5045650;28;20954;-65
2022/05/04 09:23:26;;;;;;;6.70;6.40;;;;;;;23.57;35.62;100814.13;5047994;28;20345;-66
2022/05/04 09:25:57;;;;;;;6.60;6.30;;;;;;;24.58;32.53;100812.69;5052778;28;20037;-66
2022/05/04 09:28:24;;;;;;;6.80;6.50;;;;;;;24.28;32.47;100805.91;5054061;28;20029;-65
2022/05/04 09:30:54;;;;;;;6.80;6.50;;;;;;;23.78;34.29;100807.06;5053171;28;20028;-64
2022/05/04 09:33:31;;;;;;;6.75;6.45;;;;;;;23.64;34.40;100801.22;5049391;28;20033;-65
2022/05/04 09:35:58;;;;;;;6.70;6.40;;;;;;;24.42;33.42;100807.13;5048638;28;20500;-65
2022/05/04 09:46:49;;;;;;;6.85;6.55;;;;;;;24.44;32.05;100798.75;5055442;28;20076;-65
2022/05/04 09:49:17;;;;;;;6.80;6.50;;;;;;;23.62;32.59;100797.97;5053614;28;20029;-66
2022/05/04 09:51:53;;;;;;;6.70;6.40;;;;;;;23.43;33.53;100792.06;5052532;28;20036;-66
2022/05/04 09:54:21;;;;;;;6.65;6.35;;;;;;;22.36;34.95;100797.84;5052902;28;20033;-65
2022/05/04 09:56:49;;;;;;;6.55;6.25;;;;;;;22.82;34.91;100799.34;5050949;28;20108;-63
2022/05/04 09:59:16;;;;;;;6.93;6.63;;;;;;;22.07;35.99;100795.19;5048985;28;20514;-65
2022/05/04 10:01:43;;;;;;;7.40;7.10;;;;;;;21.98;35.88;100796.66;5050107;28;20028;-65
2022/05/04 10:04:10;;;;;;;7.15;6.85;;;;;;;22.40;35.17;100798.16;5051294;28;20028;-64
2022/05/04 10:06:36;;;;;;;6.80;6.50;;;;;;;23.08;34.00;100797.84;5054468;28;20568;-63
2022/05/04 10:09:06;;;;;;;7.05;6.75;;;;;;;23.14;33.63;100798.75;5051033;28;20082;-65
2022/05/04 10:11:36;;;;;;;6.80;6.50;;;;;;;22.89;33.28;100800.03;5053289;28;20063;-65
2022/05/04 10:14:10;;;;;;;6.80;6.50;;;;;;;22.95;33.60;100791.97;5053608;28;20025;-65
2022/05/04 10:16:44;;;;;;;6.70;6.40;;;;;;;23.47;32.76;100799.66;5052476;28;20041;-64
2022/05/04 10:19:18;;;;;;;6.57;6.28;;;;;;;20.17;37.53;100778.97;5055375;28;20076;-65
2022/05/04 10:21:48;;;;;;;6.90;6.60;;;;;;;21.79;34.37;100787.09;5053140;28;20691;-64
2022/05/04 10:24:17;;;;;;;6.78;6.47;;;;;;;22.36;33.14;100780.81;5053531;28;20031;-65
2022/05/04 10:26:45;;;;;;;7.20;6.90;;;;;;;21.93;32.61;100772.25;5050444;28;20037;-64
2022/05/04 10:32:28;;;;;;;7.00;6.70;;;;;;;22.03;31.43;100771.59;5063012;28;20039;-64
2022/05/04 10:35:24;;;;;;;7.05;6.75;;;;;;;22.40;31.45;100781.94;5046500;28;20055;-65
2022/05/04 10:37:58;;;;;;;6.88;6.57;;;;;;;22.57;31.16;100772.78;5051108;28;20033;-63
2022/05/04 10:40:40;;;;;;;6.95;6.65;;;;;;;22.14;32.12;100776.16;5049599;28;20041;-63
2022/05/04 10:43:11;;;;;;;6.70;6.40;;;;;;;21.97;32.46;100772.59;5049643;28;20132;-65
2022/05/04 10:45:41;;;;;;;6.70;6.40;;;;;;;22.45;31.33;100782.84;5045296;28;20029;-64
2022/05/04 10:48:07;;;;;;;7.10;6.80;;;;;;;22.38;31.62;100781.38;5056897;28;20033;-64
2022/05/04 10:50:50;;;;;;;7.20;6.90;;;;;;;22.15;31.44;100775.06;5053604;28;20107;-65
2022/05/04 10:53:25;;;;;;;6.70;6.40;;;;;;;21.94;31.25;100775.75;5062290;28;20387;-63
2022/05/04 10:56:03;;;;;;;6.57;6.28;;;;;;;21.92;30.15;100778.72;5055114;28;20075;-65
2022/05/04 10:58:43;;;;;;;6.95;6.65;;;;;;;22.18;29.88;100788.13;5044038;28;20079;-63
2022/05/04 11:01:27;;;;;;;6.65;6.35;;;;;;;22.12;29.95;100772.88;5045938;28;20040;-65
2022/05/04 11:03:57;;;;;;;;;;;;;;;22.29;30.42;100781.78;5053227;28;20025;-64
2022/05/04 11:06:27;;;;;;;6.90;6.60;;;;;;;22.65;29.77;100779.63;5046877;28;20372;-64
2022/05/04 11:08:55;;;;;;;6.88;6.57;;;;;;;22.10;29.77;100771.47;5061411;28;20024;-65
2022/05/04 11:11:23;;;;;;;6.90;6.60;;;;;;;22.65;30.43;100766.13;5053676;28;20441;-65
2022/05/04 11:13:50;;;;;;;6.18;5.97;;;;;;;22.68;30.48;100765.59;5050673;28;20028;-64
2022/05/04 11:16:16;;;;;;;6.60;6.30;;;;;;;21.67;30.97;100760.19;5048921;28;20020;-65
2022/05/04 11:18:42;;;;;;;6.80;6.50;;;;;;;21.54;31.07;100754.25;5054769;28;20487;-65
2022/05/04 11:21:15;;;;;;;6.78;6.47;;;;;;;21.87;31.47;100754.31;5050954;28;20040;-64
2022/05/04 11:23:52;;;;;;;6.97;6.68;;;;;;;21.94;31.52;100754.97;5054007;28;20034;-64
2022/05/04 11:26:26;;;;;;;6.57;6.28;;;;;;;22.26;30.94;100752.56;5040088;28;20086;-65
2022/05/04 11:28:53;;;;;;;6.82;6.53;;;;;;;21.84;31.49;100744.00;5045480;28;20403;-64
2022/05/04 11:31:20;;;;;;;6.68;6.38;;;;;;;22.26;31.31;100741.75;5057665;28;20039;-64
2022/05/04 11:33:48;;;;;;;6.80;6.50;;;;;;;22.05;30.84;100739.75;5064328;28;20039;-65
2022/05/04 11:36:16;;;;;;;6.60;6.30;;;;;;;22.11;31.23;100744.22;5050299;28;20028;-64
2022/05/04 11:38:45;;;;;;;6.70;6.40;;;;;;;22.54;31.05;100732.69;5058778;28;20024;-64
2022/05/04 11:41:11;;;;;;;6.25;6.03;;;;;;;22.25;30.93;100740.09;5065158;28;20116;-63
2022/05/04 11:43:37;;;;;;;6.80;6.50;;;;;;;21.86;31.09;100724.84;5045292;28;20101;-63
2022/05/04 11:46:09;;;;;;;6.60;6.30;;;;;;;22.08;31.33;100728.47;5048382;28;20037;-64
2022/05/04 11:48:39;;;;;;;7.15;6.85;;;;;;;22.19;31.16;100727.59;5051246;28;20036;-64
2022/05/04 11:51:05;;;;;;;6.60;6.30;;;;;;;21.46;30.44;100728.47;5057761;28;20038;-63
2022/05/04 11:53:32;;;;;;;6.90;6.60;;;;;;;21.20;30.60;100716.31;5047102;28;20027;-64
2022/05/04 11:55:59;;;;;;;6.80;6.50;;;;;;;22.26;29.73;100722.03;5046393;28;20362;-64
2022/05/04 11:58:27;;;;;;;6.68;6.38;;;;;;;22.30;29.67;100723.97;5056614;28;20622;-64